Bei Facebook empfehlenBei Twitter postenGoogle plusPinterest

Das Wetter im Erzgebirge am 28.12.2016

Wetter und Klima am 28.12.2016 Holzhau im Erzgebirge (630m ü.NN)
Letzte gemessene Temperatur und Uhrzeit der Messung23:45:00 Uhr0.90 °C
Temperatur (Maximum / Höchstwert) und Uhrzeit der Messung02:15:00 Uhr2.90 °C
Temperatur (Minimum / Tiefstwert) und Uhrzeit der Messung23:45:000.90 °C
Errechneter Absolutwert der Temperaturschwankungen zwischen Tmin und Tmax des Tages2.00 K
Errechnete Tagesmitteltemperatur2.21354 °C
Gesamt - Niederschlag des Tages (in flüssiger Form)15.54 Liter / m²
Luftdruck (Maximum / Höchstwert) und Zeitpunkt der Messung23:30:00 Uhr1034.60 hPa
Luftdruck (Minimum / Tiefstwert) und Zeitpunkt der Messung01:15:00 Uhr1028.90 hPa
Errechneter Absolutwert der Luftdruckschwankungen des Tages5.70 hPa
Höchste gemessene Windgeschwindigkeit und Uhrzeit der Messung23:45:00 Uhr0.00 km/h
Errechnete Windhäufigkeit in Relation zu den Messwerten des Tages0.00000 %
Niedrigste Windkühle (Windchill) und Zeitpunkt der Messung23:45:00 Uhr0.90 °C
Taupunkt (Maximum / Höchstwert) und Uhrzeit der Messung02:15:00 Uhr2.50 °C
Taupunkt (Minimum / Tiefstwert) und Uhrzeit der Messung23:45:000.60 °C
Anzahl der automatisch eingelesenen Messwerte 96

Detaillierte Wetter- und Klima- Messwerte für den 28.12.2016 in Holzhau im Erzgebirge (630m ü.NN)
ZeitTemperaturLuftdruckRel. LuftfeuchteWindWindrichtungWindchillTaupunktNiederschlag l/m²
23:45:000.90 °C1034.50 hPa98.00 %0.60 °C15.54
23:30:001.30 °C1034.60 hPa98.00 %1.00 °C15.54
23:15:001.30 °C1034.40 hPa98.00 %1.00 °C15.54
23:00:001.40 °C1034.50 hPa98.00 %1.10 °C15.54
22:45:001.60 °C1034.30 hPa98.00 %1.30 °C15.54
22:30:001.50 °C1034.20 hPa98.00 %1.20 °C15.54
22:15:001.50 °C1034.10 hPa98.00 %1.20 °C15.54
22:00:001.40 °C1034.10 hPa98.00 %1.10 °C15.54
21:45:001.50 °C1034.00 hPa97.00 %1.10 °C15.54
21:30:001.60 °C1033.90 hPa98.00 %1.30 °C15.02
21:15:001.60 °C1033.90 hPa98.00 %1.30 °C15.02
21:00:001.80 °C1034.10 hPa98.00 %1.50 °C15.02
20:45:001.80 °C1033.80 hPa98.00 %1.50 °C15.02
20:30:001.80 °C1033.90 hPa98.00 %1.50 °C15.02
20:15:001.90 °C1033.70 hPa98.00 %1.60 °C15.02
20:00:001.80 °C1033.80 hPa98.00 %1.50 °C15.02
19:45:001.90 °C1033.60 hPa98.00 %1.60 °C15.02
19:30:001.90 °C1033.40 hPa98.00 %1.60 °C14.51
19:15:001.90 °C1033.10 hPa98.00 %1.60 °C14.51
19:00:001.90 °C1033.10 hPa98.00 %1.60 °C14.51
18:45:001.90 °C1033.10 hPa98.00 %1.60 °C14.51
18:30:001.90 °C1033.00 hPa98.00 %1.60 °C14.51
18:15:002.00 °C1033.00 hPa97.00 %1.60 °C14.51
18:00:002.00 °C1032.80 hPa98.00 %1.70 °C14.51
17:45:001.90 °C1032.60 hPa97.00 %1.50 °C14.51
17:30:002.00 °C1032.70 hPa97.00 %1.60 °C14.51
17:15:002.00 °C1032.60 hPa97.00 %1.60 °C14.51
17:00:002.10 °C1032.40 hPa97.00 %1.70 °C14.51
16:45:002.10 °C1032.20 hPa97.00 %1.70 °C14.51
16:30:002.10 °C1032.20 hPa97.00 %1.70 °C14.51
16:15:002.10 °C1032.30 hPa97.00 %1.70 °C14.51
16:00:002.10 °C1031.90 hPa97.00 %1.70 °C14.51
15:45:002.10 °C1031.80 hPa97.00 %1.70 °C14.51
15:30:002.10 °C1031.80 hPa97.00 %1.70 °C14.51
15:15:002.20 °C1031.80 hPa97.00 %1.80 °C14.51
15:00:002.20 °C1031.90 hPa97.00 %1.80 °C14.51
14:45:002.20 °C1031.90 hPa97.00 %1.80 °C14.51
14:30:002.20 °C1031.50 hPa97.00 %1.80 °C14.51
14:15:002.20 °C1031.60 hPa97.00 %1.80 °C14.51
14:00:002.10 °C1031.70 hPa97.00 %1.70 °C14.51
13:45:002.20 °C1031.60 hPa97.00 %1.80 °C14.51
13:30:002.20 °C1031.80 hPa97.00 %1.80 °C14.51
13:15:002.30 °C1031.80 hPa97.00 %1.90 °C14.51
13:00:002.20 °C1031.70 hPa97.00 %1.80 °C14.51
12:45:002.30 °C1031.50 hPa97.00 %1.90 °C14.51
12:30:002.20 °C1031.50 hPa97.00 %1.80 °C14.51
12:15:002.20 °C1031.80 hPa97.00 %1.80 °C14.51
12:00:002.20 °C1031.70 hPa97.00 %1.80 °C14.51
11:45:002.20 °C1031.40 hPa97.00 %1.80 °C13.99
11:30:002.20 °C1031.90 hPa97.00 %1.80 °C13.99
11:15:002.10 °C1031.40 hPa97.00 %1.70 °C13.47
11:00:002.10 °C1031.60 hPa97.00 %1.70 °C13.47
10:45:002.20 °C1031.60 hPa97.00 %1.80 °C12.95
10:30:002.20 °C1031.40 hPa97.00 %1.80 °C12.95
10:15:002.20 °C1031.30 hPa97.00 %1.80 °C12.43
10:00:002.30 °C1031.30 hPa97.00 %1.90 °C11.92
09:45:002.40 °C1031.30 hPa97.00 %2.00 °C11.40
09:30:002.40 °C1031.30 hPa97.00 %2.00 °C11.40
09:15:002.40 °C1031.30 hPa97.00 %2.00 °C11.40
09:00:002.40 °C1031.40 hPa97.00 %2.00 °C11.40
08:45:002.40 °C1031.20 hPa97.00 %2.00 °C11.40
08:30:002.40 °C1031.10 hPa97.00 %2.00 °C10.88
08:15:002.40 °C1031.10 hPa97.00 %2.00 °C10.36
08:00:002.40 °C1031.00 hPa97.00 %2.00 °C10.36
07:45:002.40 °C1030.80 hPa97.00 %2.00 °C10.36
07:30:002.40 °C1030.40 hPa97.00 %2.00 °C9.84
07:15:002.40 °C1030.40 hPa97.00 %2.00 °C9.33
07:00:002.40 °C1030.30 hPa97.00 %2.00 °C8.81
06:45:002.50 °C1030.20 hPa97.00 %2.10 °C8.29
06:30:002.50 °C1030.20 hPa97.00 %2.10 °C8.29
06:15:002.50 °C1030.10 hPa97.00 %2.10 °C8.29
06:00:002.50 °C1030.10 hPa97.00 %2.10 °C8.29
05:45:002.40 °C1030.10 hPa97.00 %2.00 °C8.29
05:30:002.50 °C1030.00 hPa97.00 %2.10 °C7.77
05:15:002.40 °C1030.00 hPa97.00 %2.00 °C7.25
05:00:002.50 °C1030.00 hPa97.00 %2.10 °C6.22
04:45:002.50 °C1030.00 hPa97.00 %2.10 °C6.22
04:30:002.60 °C1030.00 hPa97.00 %2.20 °C5.70
04:15:002.60 °C1030.00 hPa97.00 %2.20 °C5.18
04:00:002.60 °C1029.80 hPa97.00 %2.20 °C5.18
03:45:002.70 °C1029.90 hPa97.00 %2.30 °C4.66
03:30:002.70 °C1029.70 hPa97.00 %2.30 °C4.15
03:15:002.60 °C1029.50 hPa97.00 %2.20 °C3.63
03:00:002.70 °C1029.50 hPa97.00 %2.30 °C3.11
02:45:002.80 °C1029.60 hPa97.00 %2.40 °C2.07
02:30:002.80 °C1029.50 hPa97.00 %2.40 °C1.56
02:15:002.90 °C1029.30 hPa97.00 %2.50 °C1.04
02:00:002.90 °C1029.20 hPa97.00 %2.50 °C1.04
01:45:002.80 °C1029.20 hPa97.00 %2.40 °C1.04
01:30:002.80 °C1029.00 hPa97.00 %2.40 °C1.04
01:15:002.80 °C1028.90 hPa97.00 %2.40 °C 
01:00:002.80 °C1028.90 hPa97.00 %2.40 °C 
00:45:002.80 °C1029.20 hPa97.00 %2.40 °C 
00:30:002.80 °C1029.30 hPa97.00 %2.40 °C 
00:15:002.80 °C1029.10 hPa97.00 %2.40 °C 
00:00:002.80 °C1029.00 hPa97.00 %2.40 °C 

Permanenter Link zu dieser Seite: Wetter im Erzgebirge am 28.12.2016
Performance-Info: Die Erstellung der Seite / Statistik(en) / Tabelle(n) erforderte 5 Datenbankserver-Abfrage(n) und dauerte 101 Millisekunden. (Dieser Messwert ist von der Gesamt-Auslastung des Servers abhängig.)
Erzgebirge - Wetter | Erzgebirge - Wetter (Mobilgeräte) | Komplette Klimadatenbank